TimeEST,TemperatureF,Dew PointF,Humidity,Sea Level PressureIn,VisibilityMPH,Wind Direction,Wind SpeedMPH,Gust SpeedMPH,PrecipitationIn,Events,Conditions,WindDirDegrees,DateUTC
1:53 AM,51.1,46.9,86,30.23,9.0,Calm,Calm,-,N/A,,Overcast,0,2012-12-04 06:53:00
2:53 AM,51.1,46.9,86,30.23,8.0,Calm,Calm,-,N/A,,Mostly Cloudy,0,2012-12-04 07:53:00
3:53 AM,51.1,46.9,86,30.22,8.0,East,3.5,-,N/A,,Overcast,100,2012-12-04 08:53:00
4:53 AM,50.0,46.9,89,30.23,8.0,East,3.5,-,0.00,,Overcast,100,2012-12-04 09:53:00
5:53 AM,50.0,46.9,89,30.23,7.0,Calm,Calm,-,0.00,Rain,Light Rain,0,2012-12-04 10:53:00
6:53 AM,50.0,46.9,89,30.24,6.0,ESE,3.5,-,N/A,,Overcast,110,2012-12-04 11:53:00
7:53 AM,48.9,46.9,93,30.23,3.0,Calm,Calm,-,0.01,,Partly Cloudy,0,2012-12-04 12:53:00
8:53 AM,52.0,50.0,93,30.24,4.0,Calm,Calm,-,N/A,,Clear,0,2012-12-04 13:53:00
9:53 AM,55.9,51.1,84,30.24,7.0,SSW,4.6,-,N/A,,Clear,200,2012-12-04 14:53:00
10:53 AM,60.1,52.0,75,30.22,8.0,SW,8.1,-,N/A,,Partly Cloudy,220,2012-12-04 15:53:00
11:53 AM,64.0,54.0,70,30.18,10.0,SSW,10.4,-,N/A,,Clear,210,2012-12-04 16:53:00
12:53 PM,66.0,54.0,65,30.15,10.0,SW,9.2,-,N/A,,Clear,220,2012-12-04 17:53:00
1:53 PM,66.0,54.0,65,30.12,10.0,SSW,6.9,-,N/A,,Clear,210,2012-12-04 18:53:00
2:53 PM,66.0,53.1,63,30.11,10.0,SW,6.9,-,N/A,,Clear,220,2012-12-04 19:53:00
3:53 PM,64.0,53.1,67,30.10,10.0,SW,5.8,-,N/A,,Partly Cloudy,230,2012-12-04 20:53:00
4:53 PM,61.0,52.0,72,30.09,10.0,SSW,3.5,-,N/A,,Clear,210,2012-12-04 21:53:00
5:53 PM,60.1,52.0,75,30.08,10.0,South,5.8,-,N/A,,Clear,190,2012-12-04 22:53:00
6:53 PM,59.0,53.1,81,30.06,10.0,South,5.8,-,N/A,,Clear,190,2012-12-04 23:53:00
7:53 PM,55.9,52.0,87,30.05,10.0,SSW,5.8,-,N/A,,Clear,210,2012-12-05 00:53:00
8:53 PM,55.9,51.1,84,30.03,10.0,SSW,4.6,-,N/A,,Clear,200,2012-12-05 01:53:00
9:53 PM,55.9,51.1,84,30.01,10.0,South,8.1,-,N/A,,Mostly Cloudy,190,2012-12-05 02:53:00
10:53 PM,55.0,51.1,86,29.99,10.0,South,4.6,-,N/A,,Overcast,190,2012-12-05 03:53:00
11:53 PM,55.0,51.1,86,29.97,10.0,South,8.1,-,N/A,,Overcast,190,2012-12-05 04:53:00